Latest Weather Observations for Parawa West

IDS60901

Issued at 7:31 pm CST Wednesday 27 May 2015 (issued every 10 minutes, with the page automatically refreshed every 10 minutes)

About weather observations | Map of Adelaide area stations | Latest observations for Adelaide area | Other Formats
Station Details ID: 023875 Name: SECOND VALLEY FOREST AWS Lat: -35.57 Lon: 138.29 Height: 341.0 m
Data from the previous 72 hours. | See also: Recent months at Parawa West
Date/Time
CST
Tmp

°C
App
Tmp
°C
Dew
Point
°C
Rel
Hum
%
Delta-T

°C
Wind Press
QNH
hPa
Press
MSL
hPa
Rain
since
9 am
mm
Dir
 
Spd
km/h
Gust
km/h
Spd
kts
Gust
kts
27/07:30pm 13.3 13.0 13.3 100 0.0 NW 7 13 4 7 1018.3 1018.2 0.0
27/07:00pm 13.3 12.6 13.3 100 0.0 NNW 9 19 5 10 1018.3 1018.2 0.0
27/06:30pm 13.3 13.2 13.3 100 0.0 NW 6 9 3 5 1018.1 1018.0 0.0
27/06:00pm 13.2 12.9 13.2 100 0.0 NW 7 11 4 6 1018.1 1018.0 0.0
27/05:30pm 13.2 13.1 13.2 100 0.0 N 6 11 3 6 1018.0 1017.8 0.0
27/05:00pm 13.2 12.5 13.2 100 0.0 NNW 9 19 5 10 1018.0 1017.8 0.0
27/04:30pm 13.1 12.7 13.1 100 0.0 NNW 7 15 4 8 1017.9 1017.7 0.0
27/04:00pm 13.1 12.4 13.1 100 0.0 NW 9 17 5 9 1017.9 1017.7 0.0
27/03:30pm 13.2 12.9 13.2 100 0.0 NNW 7 13 4 7 1017.9 1017.7 0.0
27/03:00pm 13.4 12.0 13.4 100 0.0 NNW 13 24 7 13 1018.0 1017.8 0.0
27/02:30pm 13.4 12.4 13.4 100 0.0 NNW 11 22 6 12 1017.9 1017.7 0.0
27/02:00pm 13.3 11.9 13.3 100 0.0 NNW 13 26 7 14 1018.1 1018.0 0.0
27/01:30pm 13.1 10.8 13.1 100 0.0 NW 17 28 9 15 1018.3 1018.2 0.0
27/01:00pm 12.9 11.3 12.9 100 0.0 NW 13 17 7 9 1018.7 1018.6 0.0
27/12:30pm 12.6 11.3 12.6 100 0.0 NNW 11 24 6 13 1019.1 1019.0 0.0
27/12:00pm 12.7 11.5 12.7 100 0.0 NNW 11 19 6 10 1019.5 1019.4 0.0
27/11:30am 12.6 10.6 12.6 100 0.0 NW 15 24 8 13 1019.8 1019.7 0.0
27/11:00am 12.8 10.8 12.8 100 0.0 NNW 15 28 8 15 1020.1 1020.0 0.0
27/10:30am 12.8 11.2 12.8 100 0.0 NW 13 28 7 15 1020.1 1020.0 0.0
27/10:00am 12.5 10.4 12.5 100 0.0 NW 15 24 8 13 1020.0 1019.9 0.0
27/09:30am 12.5 10.8 12.5 100 0.0 NW 13 20 7 11 1019.8 1019.7 0.0
27/09:00am 12.6 11.7 12.6 100 0.0 NNW 9 15 5 8 1020.0 1019.9 0.0
27/08:30am 12.5 10.8 12.5 100 0.0 NNW 13 20 7 11 1020.0 1019.9 0.0
27/08:00am 12.4 10.3 12.4 100 0.0 NW 15 28 8 15 1019.7 1019.6 0.0
27/07:30am 12.3 10.6 12.3 100 0.0 NNW 13 22 7 12 1019.6 1019.5 0.0
27/07:00am 12.3 10.6 12.3 100 0.0 NW 13 20 7 11 1019.4 1019.3 0.0
27/06:30am 12.3 10.6 12.3 100 0.0 NNW 13 19 7 10 1019.1 1019.0 0.0
27/06:00am 12.2 10.0 12.2 100 0.0 NNW 15 24 8 13 1018.8 1018.7 0.0
27/05:30am 12.2 9.7 12.2 100 0.0 NW 17 22 9 12 1018.6 1018.5 0.0
27/05:00am 12.2 9.7 12.2 100 0.0 NW 17 24 9 13 1018.7 1018.6 0.0
27/04:30am 12.5 9.7 12.5 100 0.0 NW 19 28 10 15 1018.9 1018.8 0.0
27/04:00am 12.8 10.3 12.2 96 0.3 NW 17 26 9 14 1018.9 1018.8 0.0
27/03:30am 12.9 9.9 12.1 95 0.4 NW 19 26 10 14 1019.1 1019.0 0.0
27/03:00am 13.1 10.9 12.0 93 0.6 NW 15 22 8 12 1019.1 1019.0 0.0
27/02:30am 13.2 10.6 11.9 92 0.7 NNW 17 24 9 13 1019.4 1019.3 0.0
27/02:00am 13.0 10.8 12.1 94 0.5 NNW 15 24 8 13 1019.6 1019.5 0.0
27/01:30am 12.8 10.6 12.2 96 0.3 NNW 15 24 8 13 1019.6 1019.5 0.0
27/01:00am 12.8 9.7 11.7 93 0.6 NNW 19 30 10 16 1019.6 1019.5 0.0
27/12:30am 12.2 10.8 12.2 100 0.0 NNW 11 17 6 9 1019.9 1019.8 0.0
27/12:00am 12.2 11.2 12.2 100 0.0 NW 9 15 5 8 1020.2 1020.1 0.0
 
Date/Time
CST
Tmp

°C
App
Tmp
°C
Dew
Point
°C
Rel
Hum
%
Delta-T

°C
Wind Press
QNH
hPa
Press
MSL
hPa
Rain
since
9 am
mm
Dir
 
Spd
km/h
Gust
km/h
Spd
kts
Gust
kts
26/11:30pm 11.8 11.2 11.6 99 0.1 NNW 6 9 3 5 1020.2 1020.1 0.0
26/11:00pm 11.8 10.9 11.2 96 0.3 NW 7 9 4 5 1020.4 1020.2 0.0
26/10:30pm 11.6 11.1 10.8 95 0.4 NNW 4 6 2 3 1020.4 1020.2 0.0
26/10:00pm 12.4 10.3 11.0 91 0.7 NNW 13 19 7 10 1020.9 1020.8 0.0
26/09:30pm 13.3 10.3 10.8 85 1.3 NNW 17 24 9 13 1021.3 1021.2 0.0
26/09:00pm 13.4 11.7 10.0 80 1.8 NNW 9 19 5 10 1021.3 1021.2 0.0
26/08:30pm 13.5 12.1 9.6 77 2.0 NW 7 11 4 6 1021.2 1021.1 0.0
26/08:00pm 13.7 11.8 9.2 74 2.3 NNW 9 13 5 7 1021.2 1021.1 0.0
26/07:30pm 13.4 11.8 8.9 74 2.3 NW 7 9 4 5 1021.2 1021.1 0.0
26/07:00pm 12.8 11.4 8.9 77 2.0 N 6 7 3 4 1021.0 1020.9 0.0
26/06:30pm 12.3 11.3 9.0 80 1.7 N 4 7 2 4 1021.0 1020.9 0.0
26/06:00pm 11.9 11.2 8.6 80 1.7 N 2 4 1 2 1021.1 1021.0 0.0
26/05:30pm 12.3 12.1 9.1 81 1.6 CALM 0 0 0 0 1021.0 1020.9 0.0
26/05:00pm 13.9 13.9 9.9 77 2.1 CALM 0 0 0 0 1021.0 1020.9 0.0
26/04:30pm 14.9 15.0 10.1 73 2.5 CALM 0 0 0 0 1021.0 1020.9 0.0
26/04:00pm 15.8 15.4 9.9 68 3.1 NNW 2 6 1 3 1021.0 1020.9 0.0
26/03:30pm 15.8 15.0 9.7 67 3.2 N 4 7 2 4 1021.0 1020.9 0.0
26/03:00pm 16.1 16.5 11.3 73 2.6 CALM 0 6 0 3 1021.0 1020.9 0.0
26/02:30pm 16.4 16.4 11.3 72 2.8 NNE 2 6 1 3 1021.2 1021.1 0.0
26/02:00pm 15.9 15.8 10.9 72 2.7 NE 2 6 1 3 1021.6 1021.5 0.0
26/01:30pm 16.4 16.3 12.0 75 2.4 N 4 9 2 5 1022.2 1022.1 0.0
26/01:00pm 15.8 15.3 10.8 72 2.7 N 4 7 2 4 1022.7 1022.6 0.0
26/12:30pm 15.9 15.4 10.7 71 2.8 N 4 7 2 4 1023.0 1023.0 0.0
26/12:00pm 15.2 14.4 11.0 76 2.3 NNW 6 11 3 6 1023.5 1023.4 0.0
26/11:30am 15.5 15.4 10.7 73 2.6 N 2 7 1 4 1023.9 1023.8 0.0
26/11:00am 15.2 14.7 10.6 74 2.5 N 4 7 2 4 1024.3 1024.2 0.0
26/10:30am 14.7 14.2 10.7 77 2.1 N 4 9 2 5 1024.7 1024.6 0.0
26/10:00am 14.4 14.2 10.4 77 2.1 NNE 2 7 1 4 1024.9 1024.8 0.0
26/09:30am 13.9 12.9 10.3 79 1.9 WNW 6 9 3 5 1025.0 1024.9 0.0
26/09:00am 13.6 13.3 10.2 80 1.8 WNW 2 6 1 3 1024.9 1024.8 0.0
26/08:30am 12.3 11.6 10.0 86 1.2 W 4 7 2 4 1025.1 1025.0 0.0
26/08:00am 11.7 11.7 9.8 88 1.0 CALM 0 0 0 0 1025.0 1024.9 0.0
26/07:30am 12.0 11.6 9.7 86 1.2 W 2 4 1 2 1024.8 1024.7 0.0
26/07:00am 11.9 11.5 9.8 87 1.1 WNW 2 6 1 3 1024.8 1024.7 0.0
26/06:30am 11.8 11.4 9.7 87 1.1 WNW 2 4 1 2 1024.9 1024.8 0.0
26/06:00am 11.9 11.1 9.6 86 1.2 NW 4 7 2 4 1024.8 1024.7 0.0
26/05:30am 12.1 11.3 9.8 86 1.2 NNW 4 6 2 3 1024.8 1024.7 0.0
26/05:00am 12.2 11.5 9.9 86 1.2 NNW 4 6 2 3 1024.8 1024.7 0.0
26/04:30am 12.4 11.7 10.0 85 1.2 N 4 7 2 4 1024.9 1024.8 0.0
26/04:00am 12.5 12.1 9.9 84 1.4 NNE 2 4 1 2 1024.9 1024.8 0.0
26/03:30am 12.2 12.2 9.9 86 1.2 CALM 0 2 0 1 1025.1 1025.0 0.0
26/03:00am 11.9 11.8 9.6 86 1.2 CALM 0 2 0 1 1025.2 1025.1 0.0
26/02:30am 11.6 11.1 9.5 87 1.1 NE 2 4 1 2 1025.6 1025.6 0.0
26/02:00am 11.5 11.3 9.1 85 1.2 CALM 0 0 0 0 1025.8 1025.8 0.0
26/01:30am 11.5 11.3 8.9 84 1.3 CALM 0 0 0 0 1025.8 1025.8 0.0
26/01:00am 11.6 11.0 9.0 84 1.3 NE 2 7 1 4 1025.9 1025.9 0.0
26/12:30am 11.5 11.3 8.9 84 1.3 CALM 0 0 0 0 1026.0 1026.0 0.0
26/12:00am 11.3 10.7 8.9 85 1.2 NE 2 6 1 3 1026.4 1026.4 0.0
 
Date/Time
CST
Tmp

°C
App
Tmp
°C
Dew
Point
°C
Rel
Hum
%
Delta-T

°C
Wind Press
QNH
hPa
Press
MSL
hPa
Rain
since
9 am
mm
Dir
 
Spd
km/h
Gust
km/h
Spd
kts
Gust
kts
25/11:30pm 11.3 11.0 8.5 83 1.4 CALM 0 0 0 0 1026.8 1026.7 0.0
25/11:00pm 11.6 10.9 8.6 82 1.5 NE 2 6 1 3 1027.1 1027.0 0.0
25/10:30pm 12.3 10.8 8.6 78 1.9 NE 6 11 3 6 1027.2 1027.1 0.0
25/10:00pm 12.4 9.7 8.9 79 1.8 ENE 13 15 7 8 1027.0 1026.9 0.0
25/09:30pm 12.4 9.6 8.7 78 1.9 ENE 13 17 7 9 1027.1 1027.0 0.0
25/09:00pm 12.1 9.3 8.4 78 1.9 ENE 13 15 7 8 1027.3 1027.2 0.0
25/08:30pm 11.9 9.5 8.6 80 1.7 E 11 13 6 7 1027.5 1027.4 0.0
25/08:00pm 11.1 8.5 7.6 79 1.7 E 11 15 6 8 1027.1 1027.0 0.0
25/07:30pm 10.7 8.3 7.0 78 1.8 E 9 13 5 7 1027.2 1027.1 0.0
25/07:00pm 11.1 8.8 7.6 79 1.7 E 9 13 5 7 1027.2 1027.1 0.0
25/06:30pm 11.3 9.2 8.2 81 1.5 ESE 9 13 5 7 1027.0 1026.9 0.0
25/06:00pm 11.3 9.4 8.9 85 1.2 ESE 9 11 5 6 1027.0 1026.9 0.0
25/05:30pm 11.7 10.2 9.3 85 1.2 ESE 7 9 4 5 1026.9 1026.8 0.0
25/05:00pm 12.3 10.9 9.7 84 1.3 ESE 7 9 4 5 1026.7 1026.6 0.0
25/04:30pm 13.1 11.4 9.9 81 1.7 SE 9 13 5 7 1026.2 1026.2 0.0
25/04:00pm 13.3 11.6 9.9 80 1.8 SE 9 11 5 6 1026.4 1026.4 0.0
25/03:30pm 14.4 12.5 10.4 77 2.1 SE 11 15 6 8 1026.2 1026.2 0.0
25/03:00pm 14.6 13.4 10.2 75 2.3 SE 7 11 4 6 1026.4 1026.4 0.0
25/02:30pm 16.0 15.8 10.3 69 3.0 NNE 2 4 1 2 1026.0 1026.0 0.0
25/02:00pm 16.6 16.3 10.0 65 3.5 NNE 2 6 1 3 1026.2 1026.2 0.0
25/01:30pm 16.0 15.3 9.9 67 3.2 N 4 7 2 4 1026.4 1026.4 0.0
25/01:00pm 16.1 15.3 9.8 66 3.3 ENE 4 7 2 4 1026.3 1026.3 0.0
25/12:30pm 15.6 14.9 9.9 69 3.0 NNE 4 7 2 4 1026.8 1026.7 0.0
25/12:00pm 15.7 14.9 9.8 68 3.1 N 4 9 2 5 1027.3 1027.2 0.0
25/11:30am 15.2 14.0 9.6 69 2.9 NNW 6 9 3 5 1028.0 1028.0 0.0
25/11:00am 15.0 13.9 9.8 71 2.7 NNW 6 11 3 6 1028.4 1028.4 0.0
25/10:30am 15.0 14.3 10.0 72 2.6 NW 4 9 2 5 1028.6 1028.6 0.0
25/10:00am 14.3 13.5 9.7 74 2.4 NNW 4 7 2 4 1028.9 1028.9 0.0
25/09:30am 13.6 12.3 9.3 75 2.2 NNW 6 9 3 5 1029.0 1029.0 0.0
25/09:00am 13.1 12.7 9.7 80 1.8 N 2 4 1 2 1029.0 1029.0 0.0
25/08:30am 11.6 10.8 8.3 80 1.6 N 2 4 1 2 1028.9 1028.9 0.0
25/08:00am 11.6 10.3 7.7 77 1.9 N 4 6 2 3 1028.7 1028.7 0.0
25/07:30am 10.4 9.4 7.3 81 1.5 NW 2 4 1 2 1028.6 1028.6 0.0
25/07:00am 10.8 9.5 7.5 80 1.6 NW 4 6 2 3 1028.4 1028.4 0.0
25/06:30am 11.1 9.4 7.6 79 1.7 NW 6 7 3 4 1028.3 1028.3 0.0
25/06:00am 10.6 9.3 7.7 82 1.4 NW 4 6 2 3 1027.9 1027.8 0.0
25/05:30am 10.5 9.6 7.9 84 1.3 NW 2 2 1 1 1027.9 1027.8 0.0
25/05:00am 10.9 9.6 7.8 81 1.5 NW 4 6 2 3 1027.9 1027.8 0.0
25/04:30am 11.1 10.0 8.3 83 1.4 WNW 4 7 2 4 1027.8 1027.7 0.0
25/04:00am 10.7 9.8 9.3 91 0.7 WNW 4 4 2 2 1027.8 1027.7 0.0
25/03:30am 10.7 10.6 9.6 93 0.6 CALM 0 2 0 1 1027.8 1027.7 0.0
25/03:00am 10.5 10.4 9.6 94 0.5 CALM 0 0 0 0 1028.1 1028.1 0.0
25/02:30am 10.6 10.4 9.0 90 0.8 CALM 0 0 0 0 1028.2 1028.2 0.0
25/02:00am 10.9 10.2 8.7 86 1.1 WNW 2 4 1 2 1028.1 1028.1 0.0
25/01:30am 10.9 10.4 8.0 82 1.4 CALM 0 4 0 2 1028.1 1028.1 0.0
25/01:00am 11.2 10.0 7.9 80 1.6 NW 4 6 2 3 1028.3 1028.3 0.0
25/12:30am 11.4 9.8 7.9 79 1.7 NW 6 9 3 5 1028.4 1028.4 0.0
25/12:00am 11.1 9.3 8.1 82 1.5 WNW 7 7 4 4 1028.4 1028.4 0.0
 
Date/Time
CST
Tmp

°C
App
Tmp
°C
Dew
Point
°C
Rel
Hum
%
Delta-T

°C
Wind Press
QNH
hPa
Press
MSL
hPa
Rain
since
9 am
mm
Dir
 
Spd
km/h
Gust
km/h
Spd
kts
Gust
kts
24/11:30pm 11.1 10.3 8.1 82 1.5 NNE 2 6 1 3 1028.2 1028.2 0.0
24/11:00pm 10.8 9.7 8.6 86 1.1 NNE 4 6 2 3 1028.4 1028.4 0.0
24/10:30pm 11.6 10.1 8.6 82 1.5 N 6 9 3 5 1028.4 1028.4 0.0
24/10:00pm 11.3 9.9 9.0 86 1.2 N 6 9 3 5 1028.4 1028.4 0.0
24/09:30pm 11.8 10.3 8.6 81 1.6 N 6 7 3 4 1028.1 1028.1 0.0
24/09:00pm 11.4 10.2 9.5 88 1.0 N 6 7 3 4 1027.1 1027.0 0.0
24/08:30pm 10.7 10.0 10.2 97 0.3 N 4 6 2 3 1028.1 1028.1 0.0
24/08:00pm 10.8 10.1 9.9 94 0.5 NNW 4 7 2 4 1028.1 1028.1 0.0

Latest Capital City Observations: Canberra | Sydney | Melbourne | Brisbane | Adelaide | Perth | Hobart | Darwin

Other Formats:

Comma delimited format used in spreadsheet applications
http://www.bom.gov.au/fwo/IDS60901/IDS60901.94811.axf

JavaScript Object Notation format (JSON) in row-major order
http://www.bom.gov.au/fwo/IDS60901/IDS60901.94811.json